sensor_id;sensor_type;location;lat;lon;timestamp;P1;durP1;ratioP1;P2;durP2;ratioP2
70228;SDS011;57617;51.988;5.854;2023-01-10T00:01:21;15.60;;;2.47;;
70228;SDS011;57617;51.988;5.854;2023-01-10T00:03:46;13.18;;;2.08;;
70228;SDS011;57617;51.988;5.854;2023-01-10T00:06:11;12.18;;;2.25;;
70228;SDS011;57617;51.988;5.854;2023-01-10T00:08:37;14.10;;;2.33;;
70228;SDS011;57617;51.988;5.854;2023-01-10T00:11:02;17.10;;;2.67;;
70228;SDS011;57617;51.988;5.854;2023-01-10T00:13:47;17.35;;;2.33;;
70228;SDS011;57617;51.988;5.854;2023-01-10T00:16:16;14.77;;;2.55;;
70228;SDS011;57617;51.988;5.854;2023-01-10T00:18:41;13.55;;;2.55;;
70228;SDS011;57617;51.988;5.854;2023-01-10T00:21:07;25.20;;;2.90;;
70228;SDS011;57617;51.988;5.854;2023-01-10T00:23:33;13.85;;;2.88;;
70228;SDS011;57617;51.988;5.854;2023-01-10T00:25:58;14.07;;;2.67;;
70228;SDS011;57617;51.988;5.854;2023-01-10T00:28:23;19.20;;;3.05;;
70228;SDS011;57617;51.988;5.854;2023-01-10T00:30:53;10.63;;;2.60;;
70228;SDS011;57617;51.988;5.854;2023-01-10T00:33:19;10.48;;;2.45;;
70228;SDS011;57617;51.988;5.854;2023-01-10T00:35:45;16.35;;;2.60;;
70228;SDS011;57617;51.988;5.854;2023-01-10T00:38:11;19.75;;;3.13;;
70228;SDS011;57617;51.988;5.854;2023-01-10T00:40:37;15.70;;;2.50;;
70228;SDS011;57617;51.988;5.854;2023-01-10T00:43:04;12.00;;;2.63;;
70228;SDS011;57617;51.988;5.854;2023-01-10T00:45:47;9.60;;;2.28;;
70228;SDS011;57617;51.988;5.854;2023-01-10T00:48:13;11.20;;;2.67;;
70228;SDS011;57617;51.988;5.854;2023-01-10T00:50:39;18.45;;;3.08;;
70228;SDS011;57617;51.988;5.854;2023-01-10T00:53:05;15.50;;;2.90;;
70228;SDS011;57617;51.988;5.854;2023-01-10T00:55:31;20.05;;;3.00;;
70228;SDS011;57617;51.988;5.854;2023-01-10T00:57:57;12.80;;;2.43;;
70228;SDS011;57617;51.988;5.854;2023-01-10T01:00:22;19.65;;;3.00;;
70228;SDS011;57617;51.988;5.854;2023-01-10T01:02:48;12.70;;;2.35;;
70228;SDS011;57617;51.988;5.854;2023-01-10T01:05:15;16.20;;;2.65;;
70228;SDS011;57617;51.988;5.854;2023-01-10T01:07:41;14.10;;;2.50;;
70228;SDS011;57617;51.988;5.854;2023-01-10T01:10:06;13.60;;;2.20;;
70228;SDS011;57617;51.988;5.854;2023-01-10T01:12:50;13.63;;;2.65;;
70228;SDS011;57617;51.988;5.854;2023-01-10T01:15:16;14.68;;;2.47;;
70228;SDS011;57617;51.988;5.854;2023-01-10T01:17:41;11.67;;;2.17;;
70228;SDS011;57617;51.988;5.854;2023-01-10T01:20:07;19.98;;;2.65;;
70228;SDS011;57617;51.988;5.854;2023-01-10T01:22:33;16.38;;;2.47;;
70228;SDS011;57617;51.988;5.854;2023-01-10T01:24:58;8.02;;;2.03;;
70228;SDS011;57617;51.988;5.854;2023-01-10T01:27:23;15.23;;;2.03;;
70228;SDS011;57617;51.988;5.854;2023-01-10T01:29:49;13.02;;;2.33;;
70228;SDS011;57617;51.988;5.854;2023-01-10T01:32:14;18.88;;;2.40;;
70228;SDS011;57617;51.988;5.854;2023-01-10T01:34:39;16.58;;;2.20;;
70228;SDS011;57617;51.988;5.854;2023-01-10T01:37:05;9.93;;;1.92;;
70228;SDS011;57617;51.988;5.854;2023-01-10T01:39:30;14.98;;;2.60;;
70228;SDS011;57617;51.988;5.854;2023-01-10T01:41:56;12.77;;;2.53;;
70228;SDS011;57617;51.988;5.854;2023-01-10T01:44:21;18.90;;;2.00;;
70228;SDS011;57617;51.988;5.854;2023-01-10T01:46:53;11.40;;;2.10;;
70228;SDS011;57617;51.988;5.854;2023-01-10T01:49:25;11.57;;;1.83;;
70228;SDS011;57617;51.988;5.854;2023-01-10T01:51:56;16.50;;;2.53;;
70228;SDS011;57617;51.988;5.854;2023-01-10T01:54:27;10.55;;;2.00;;
70228;SDS011;57617;51.988;5.854;2023-01-10T01:56:59;14.13;;;2.00;;
70228;SDS011;57617;51.988;5.854;2023-01-10T01:59:34;17.88;;;2.38;;
70228;SDS011;57617;51.988;5.854;2023-01-10T02:04:59;17.42;;;2.00;;
70228;SDS011;57617;51.988;5.854;2023-01-10T02:07:33;14.80;;;1.90;;
70228;SDS011;57617;51.988;5.854;2023-01-10T02:10:03;14.52;;;1.90;;
70228;SDS011;57617;51.988;5.854;2023-01-10T02:12:33;14.93;;;1.60;;
70228;SDS011;57617;51.988;5.854;2023-01-10T02:14:59;22.95;;;2.25;;
70228;SDS011;57617;51.988;5.854;2023-01-10T02:17:25;14.77;;;1.85;;
70228;SDS011;57617;51.988;5.854;2023-01-10T02:19:51;17.85;;;1.70;;
70228;SDS011;57617;51.988;5.854;2023-01-10T02:22:26;19.02;;;2.20;;
70228;SDS011;57617;51.988;5.854;2023-01-10T02:30:53;11.73;;;1.80;;
70228;SDS011;57617;51.988;5.854;2023-01-10T02:39:07;18.25;;;2.65;;
70228;SDS011;57617;51.988;5.854;2023-01-10T02:41:44;13.65;;;1.92;;
70228;SDS011;57617;51.988;5.854;2023-01-10T02:44:21;19.50;;;2.17;;
70228;SDS011;57617;51.988;5.854;2023-01-10T02:46:52;17.20;;;2.13;;
70228;SDS011;57617;51.988;5.854;2023-01-10T02:49:17;13.13;;;2.35;;
70228;SDS011;57617;51.988;5.854;2023-01-10T02:51:43;15.25;;;1.80;;
70228;SDS011;57617;51.988;5.854;2023-01-10T02:54:12;12.80;;;1.80;;
70228;SDS011;57617;51.988;5.854;2023-01-10T03:00:02;14.70;;;2.25;;
70228;SDS011;57617;51.988;5.854;2023-01-10T03:08:20;18.00;;;1.80;;
70228;SDS011;57617;51.988;5.854;2023-01-10T03:11:01;11.75;;;2.10;;
70228;SDS011;57617;51.988;5.854;2023-01-10T03:13:43;21.67;;;2.08;;
70228;SDS011;57617;51.988;5.854;2023-01-10T03:16:16;17.08;;;1.85;;
70228;SDS011;57617;51.988;5.854;2023-01-10T03:21:15;19.10;;;1.80;;
70228;SDS011;57617;51.988;5.854;2023-01-10T03:23:43;18.52;;;2.05;;
70228;SDS011;57617;51.988;5.854;2023-01-10T03:26:11;21.33;;;2.45;;
70228;SDS011;57617;51.988;5.854;2023-01-10T03:28:40;14.30;;;2.13;;
70228;SDS011;57617;51.988;5.854;2023-01-10T03:31:17;19.05;;;2.17;;
70228;SDS011;57617;51.988;5.854;2023-01-10T03:33:52;19.35;;;2.15;;
70228;SDS011;57617;51.988;5.854;2023-01-10T03:41:36;16.27;;;2.35;;
70228;SDS011;57617;51.988;5.854;2023-01-10T03:44:14;15.13;;;2.33;;
70228;SDS011;57617;51.988;5.854;2023-01-10T03:49:33;17.45;;;2.33;;
70228;SDS011;57617;51.988;5.854;2023-01-10T03:52:02;16.63;;;2.53;;
70228;SDS011;57617;51.988;5.854;2023-01-10T03:54:29;15.43;;;2.35;;
70228;SDS011;57617;51.988;5.854;2023-01-10T03:56:55;15.10;;;2.83;;
70228;SDS011;57617;51.988;5.854;2023-01-10T03:59:21;21.17;;;3.05;;
70228;SDS011;57617;51.988;5.854;2023-01-10T04:01:50;17.00;;;2.53;;
70228;SDS011;57617;51.988;5.854;2023-01-10T04:04:16;17.55;;;2.97;;
70228;SDS011;57617;51.988;5.854;2023-01-10T04:06:41;21.50;;;3.47;;
70228;SDS011;57617;51.988;5.854;2023-01-10T04:09:07;24.10;;;3.72;;
70228;SDS011;57617;51.988;5.854;2023-01-10T04:11:32;15.95;;;3.53;;
70228;SDS011;57617;51.988;5.854;2023-01-10T04:13:58;21.33;;;3.73;;
70228;SDS011;57617;51.988;5.854;2023-01-10T04:16:23;24.52;;;3.35;;
70228;SDS011;57617;51.988;5.854;2023-01-10T04:18:49;17.55;;;3.92;;
70228;SDS011;57617;51.988;5.854;2023-01-10T04:21:14;20.17;;;4.13;;
70228;SDS011;57617;51.988;5.854;2023-01-10T04:23:39;19.27;;;3.75;;
70228;SDS011;57617;51.988;5.854;2023-01-10T04:26:07;18.55;;;3.78;;
70228;SDS011;57617;51.988;5.854;2023-01-10T04:28:35;19.95;;;4.40;;
70228;SDS011;57617;51.988;5.854;2023-01-10T04:31:01;26.37;;;5.90;;
70228;SDS011;57617;51.988;5.854;2023-01-10T04:33:26;25.77;;;5.10;;
70228;SDS011;57617;51.988;5.854;2023-01-10T04:35:52;20.52;;;4.80;;
70228;SDS011;57617;51.988;5.854;2023-01-10T04:38:18;17.67;;;5.25;;
70228;SDS011;57617;51.988;5.854;2023-01-10T04:40:50;24.60;;;4.90;;
70228;SDS011;57617;51.988;5.854;2023-01-10T04:43:20;23.25;;;5.57;;
70228;SDS011;57617;51.988;5.854;2023-01-10T04:45:46;20.45;;;4.90;;
70228;SDS011;57617;51.988;5.854;2023-01-10T04:48:11;20.88;;;5.72;;
70228;SDS011;57617;51.988;5.854;2023-01-10T04:50:37;21.02;;;5.10;;
70228;SDS011;57617;51.988;5.854;2023-01-10T04:53:02;26.77;;;5.27;;
70228;SDS011;57617;51.988;5.854;2023-01-10T04:55:27;20.92;;;5.40;;
70228;SDS011;57617;51.988;5.854;2023-01-10T04:57:53;28.98;;;4.82;;
70228;SDS011;57617;51.988;5.854;2023-01-10T05:00:18;28.40;;;5.57;;
70228;SDS011;57617;51.988;5.854;2023-01-10T05:02:43;22.63;;;4.68;;
70228;SDS011;57617;51.988;5.854;2023-01-10T05:05:09;15.60;;;4.22;;
70228;SDS011;57617;51.988;5.854;2023-01-10T05:07:35;27.27;;;4.70;;
70228;SDS011;57617;51.988;5.854;2023-01-10T05:10:02;27.08;;;4.65;;
70228;SDS011;57617;51.988;5.854;2023-01-10T05:12:28;20.17;;;4.47;;
70228;SDS011;57617;51.988;5.854;2023-01-10T05:14:53;19.83;;;4.13;;
70228;SDS011;57617;51.988;5.854;2023-01-10T05:17:18;13.32;;;4.28;;
70228;SDS011;57617;51.988;5.854;2023-01-10T05:19:44;23.88;;;4.18;;
70228;SDS011;57617;51.988;5.854;2023-01-10T05:22:09;12.73;;;3.80;;
70228;SDS011;57617;51.988;5.854;2023-01-10T05:24:34;22.73;;;4.15;;
70228;SDS011;57617;51.988;5.854;2023-01-10T05:27:00;17.23;;;4.10;;
70228;SDS011;57617;51.988;5.854;2023-01-10T05:29:25;18.20;;;3.95;;
70228;SDS011;57617;51.988;5.854;2023-01-10T05:31:50;17.23;;;3.45;;
70228;SDS011;57617;51.988;5.854;2023-01-10T05:34:16;21.40;;;4.15;;
70228;SDS011;57617;51.988;5.854;2023-01-10T05:36:41;23.60;;;4.05;;
70228;SDS011;57617;51.988;5.854;2023-01-10T05:39:06;22.00;;;4.10;;
70228;SDS011;57617;51.988;5.854;2023-01-10T05:41:32;23.77;;;4.18;;
70228;SDS011;57617;51.988;5.854;2023-01-10T05:43:57;26.08;;;4.72;;
70228;SDS011;57617;51.988;5.854;2023-01-10T05:46:22;26.05;;;4.50;;
70228;SDS011;57617;51.988;5.854;2023-01-10T05:48:48;20.30;;;3.70;;
70228;SDS011;57617;51.988;5.854;2023-01-10T05:51:15;17.88;;;3.55;;
70228;SDS011;57617;51.988;5.854;2023-01-10T05:53:41;25.77;;;3.83;;
70228;SDS011;57617;51.988;5.854;2023-01-10T05:56:07;23.80;;;4.20;;
70228;SDS011;57617;51.988;5.854;2023-01-10T05:58:33;24.08;;;3.90;;
70228;SDS011;57617;51.988;5.854;2023-01-10T06:00:58;25.90;;;4.25;;
70228;SDS011;57617;51.988;5.854;2023-01-10T06:03:24;25.20;;;4.40;;
70228;SDS011;57617;51.988;5.854;2023-01-10T06:05:50;30.93;;;4.47;;
70228;SDS011;57617;51.988;5.854;2023-01-10T06:08:16;22.10;;;3.97;;
70228;SDS011;57617;51.988;5.854;2023-01-10T06:10:41;25.65;;;4.18;;
70228;SDS011;57617;51.988;5.854;2023-01-10T06:13:07;20.88;;;3.90;;
70228;SDS011;57617;51.988;5.854;2023-01-10T06:15:34;21.48;;;4.25;;
70228;SDS011;57617;51.988;5.854;2023-01-10T06:17:59;20.42;;;3.83;;
70228;SDS011;57617;51.988;5.854;2023-01-10T06:20:25;32.38;;;4.20;;
70228;SDS011;57617;51.988;5.854;2023-01-10T06:22:50;16.90;;;4.03;;
70228;SDS011;57617;51.988;5.854;2023-01-10T06:25:16;24.40;;;4.30;;
70228;SDS011;57617;51.988;5.854;2023-01-10T06:27:41;19.92;;;4.03;;
70228;SDS011;57617;51.988;5.854;2023-01-10T06:30:08;25.80;;;4.18;;
70228;SDS011;57617;51.988;5.854;2023-01-10T06:32:35;29.95;;;4.18;;
70228;SDS011;57617;51.988;5.854;2023-01-10T06:35:00;31.40;;;4.30;;
70228;SDS011;57617;51.988;5.854;2023-01-10T06:37:25;20.48;;;4.47;;
70228;SDS011;57617;51.988;5.854;2023-01-10T06:39:51;28.58;;;4.43;;
70228;SDS011;57617;51.988;5.854;2023-01-10T06:42:16;20.77;;;4.10;;
70228;SDS011;57617;51.988;5.854;2023-01-10T06:44:41;22.50;;;4.00;;
70228;SDS011;57617;51.988;5.854;2023-01-10T06:47:07;27.40;;;4.20;;
70228;SDS011;57617;51.988;5.854;2023-01-10T06:49:32;25.65;;;4.25;;
70228;SDS011;57617;51.988;5.854;2023-01-10T06:51:57;24.38;;;4.32;;
70228;SDS011;57617;51.988;5.854;2023-01-10T06:54:22;27.67;;;4.70;;
70228;SDS011;57617;51.988;5.854;2023-01-10T06:56:48;28.45;;;4.40;;
70228;SDS011;57617;51.988;5.854;2023-01-10T06:59:13;19.73;;;4.88;;
70228;SDS011;57617;51.988;5.854;2023-01-10T07:01:38;31.70;;;4.30;;
70228;SDS011;57617;51.988;5.854;2023-01-10T07:04:04;23.63;;;4.10;;
70228;SDS011;57617;51.988;5.854;2023-01-10T07:06:29;27.67;;;4.20;;
70228;SDS011;57617;51.988;5.854;2023-01-10T07:08:55;29.88;;;4.57;;
70228;SDS011;57617;51.988;5.854;2023-01-10T07:11:20;24.27;;;4.47;;
70228;SDS011;57617;51.988;5.854;2023-01-10T07:13:46;31.02;;;3.90;;
70228;SDS011;57617;51.988;5.854;2023-01-10T07:16:13;25.40;;;3.92;;
70228;SDS011;57617;51.988;5.854;2023-01-10T07:18:39;26.77;;;4.78;;
70228;SDS011;57617;51.988;5.854;2023-01-10T07:21:06;40.30;;;4.18;;
70228;SDS011;57617;51.988;5.854;2023-01-10T07:23:32;27.88;;;4.03;;
70228;SDS011;57617;51.988;5.854;2023-01-10T07:26:01;28.73;;;4.05;;
70228;SDS011;57617;51.988;5.854;2023-01-10T07:28:27;27.52;;;4.05;;
70228;SDS011;57617;51.988;5.854;2023-01-10T07:30:52;32.35;;;4.40;;
70228;SDS011;57617;51.988;5.854;2023-01-10T07:33:18;26.95;;;4.60;;
70228;SDS011;57617;51.988;5.854;2023-01-10T07:35:43;25.60;;;5.28;;
70228;SDS011;57617;51.988;5.854;2023-01-10T07:38:08;32.10;;;4.18;;
70228;SDS011;57617;51.988;5.854;2023-01-10T07:40:34;30.40;;;8.38;;
70228;SDS011;57617;51.988;5.854;2023-01-10T07:42:59;27.65;;;4.97;;
70228;SDS011;57617;51.988;5.854;2023-01-10T07:45:26;30.13;;;5.95;;
70228;SDS011;57617;51.988;5.854;2023-01-10T07:47:58;31.13;;;7.55;;
70228;SDS011;57617;51.988;5.854;2023-01-10T07:50:25;44.88;;;14.43;;
70228;SDS011;57617;51.988;5.854;2023-01-10T07:52:52;21.83;;;5.32;;
70228;SDS011;57617;51.988;5.854;2023-01-10T07:55:18;31.02;;;6.65;;
70228;SDS011;57617;51.988;5.854;2023-01-10T07:57:43;24.45;;;6.40;;
70228;SDS011;57617;51.988;5.854;2023-01-10T08:00:09;35.92;;;5.80;;
70228;SDS011;57617;51.988;5.854;2023-01-10T08:02:35;28.23;;;3.85;;
70228;SDS011;57617;51.988;5.854;2023-01-10T08:05:00;23.95;;;3.58;;
70228;SDS011;57617;51.988;5.854;2023-01-10T08:07:27;25.00;;;3.97;;
70228;SDS011;57617;51.988;5.854;2023-01-10T08:09:54;23.67;;;3.70;;
70228;SDS011;57617;51.988;5.854;2023-01-10T08:12:20;30.83;;;4.22;;
70228;SDS011;57617;51.988;5.854;2023-01-10T08:14:45;26.77;;;3.72;;
70228;SDS011;57617;51.988;5.854;2023-01-10T08:17:10;26.52;;;4.35;;
70228;SDS011;57617;51.988;5.854;2023-01-10T08:19:36;23.23;;;3.40;;
70228;SDS011;57617;51.988;5.854;2023-01-10T08:22:01;20.90;;;3.63;;
70228;SDS011;57617;51.988;5.854;2023-01-10T08:24:27;26.63;;;3.30;;
70228;SDS011;57617;51.988;5.854;2023-01-10T08:26:52;25.77;;;3.38;;
70228;SDS011;57617;51.988;5.854;2023-01-10T08:29:17;32.72;;;3.50;;
70228;SDS011;57617;51.988;5.854;2023-01-10T08:31:43;23.17;;;3.58;;
70228;SDS011;57617;51.988;5.854;2023-01-10T08:34:08;26.55;;;3.38;;
70228;SDS011;57617;51.988;5.854;2023-01-10T08:36:33;22.50;;;2.90;;
70228;SDS011;57617;51.988;5.854;2023-01-10T08:38:59;21.58;;;3.15;;
70228;SDS011;57617;51.988;5.854;2023-01-10T08:41:24;22.52;;;3.08;;
70228;SDS011;57617;51.988;5.854;2023-01-10T08:43:50;17.35;;;2.60;;
70228;SDS011;57617;51.988;5.854;2023-01-10T08:46:15;25.40;;;3.40;;
70228;SDS011;57617;51.988;5.854;2023-01-10T08:48:41;26.95;;;3.03;;
70228;SDS011;57617;51.988;5.854;2023-01-10T08:51:07;23.77;;;3.05;;
70228;SDS011;57617;51.988;5.854;2023-01-10T08:53:33;16.98;;;3.28;;
70228;SDS011;57617;51.988;5.854;2023-01-10T08:55:58;25.58;;;3.42;;
70228;SDS011;57617;51.988;5.854;2023-01-10T08:58:24;14.65;;;2.80;;
70228;SDS011;57617;51.988;5.854;2023-01-10T09:00:49;20.30;;;3.15;;
70228;SDS011;57617;51.988;5.854;2023-01-10T09:03:15;27.70;;;3.47;;
70228;SDS011;57617;51.988;5.854;2023-01-10T09:05:40;24.98;;;3.08;;
70228;SDS011;57617;51.988;5.854;2023-01-10T09:08:05;23.50;;;3.35;;
70228;SDS011;57617;51.988;5.854;2023-01-10T09:10:31;26.60;;;3.10;;
70228;SDS011;57617;51.988;5.854;2023-01-10T09:12:56;25.92;;;3.20;;
70228;SDS011;57617;51.988;5.854;2023-01-10T09:15:26;23.40;;;3.38;;
70228;SDS011;57617;51.988;5.854;2023-01-10T09:17:57;24.10;;;3.60;;
70228;SDS011;57617;51.988;5.854;2023-01-10T09:20:24;25.23;;;3.75;;
70228;SDS011;57617;51.988;5.854;2023-01-10T09:22:50;25.33;;;3.20;;
70228;SDS011;57617;51.988;5.854;2023-01-10T09:25:16;22.23;;;3.70;;
70228;SDS011;57617;51.988;5.854;2023-01-10T09:27:41;27.02;;;3.28;;
70228;SDS011;57617;51.988;5.854;2023-01-10T09:30:07;22.63;;;3.35;;
70228;SDS011;57617;51.988;5.854;2023-01-10T09:32:33;26.80;;;3.20;;
70228;SDS011;57617;51.988;5.854;2023-01-10T09:34:59;20.73;;;3.40;;
70228;SDS011;57617;51.988;5.854;2023-01-10T09:37:24;22.58;;;3.75;;
70228;SDS011;57617;51.988;5.854;2023-01-10T09:39:49;19.15;;;3.63;;
70228;SDS011;57617;51.988;5.854;2023-01-10T09:45:15;24.35;;;3.88;;
70228;SDS011;57617;51.988;5.854;2023-01-10T09:47:52;19.30;;;3.25;;
70228;SDS011;57617;51.988;5.854;2023-01-10T09:50:31;18.85;;;3.40;;
70228;SDS011;57617;51.988;5.854;2023-01-10T09:53:14;27.08;;;3.45;;
70228;SDS011;57617;51.988;5.854;2023-01-10T09:55:48;21.85;;;3.58;;
70228;SDS011;57617;51.988;5.854;2023-01-10T09:58:18;20.73;;;3.03;;
70228;SDS011;57617;51.988;5.854;2023-01-10T10:00:48;21.05;;;3.05;;
70228;SDS011;57617;51.988;5.854;2023-01-10T10:05:54;27.63;;;3.38;;
70228;SDS011;57617;51.988;5.854;2023-01-10T10:08:20;22.35;;;3.53;;
70228;SDS011;57617;51.988;5.854;2023-01-10T10:19:12;16.95;;;2.78;;
70228;SDS011;57617;51.988;5.854;2023-01-10T10:27:50;25.70;;;3.65;;
70228;SDS011;57617;51.988;5.854;2023-01-10T10:33:33;20.95;;;3.00;;
70228;SDS011;57617;51.988;5.854;2023-01-10T10:36:18;23.15;;;4.10;;
70228;SDS011;57617;51.988;5.854;2023-01-10T10:38:47;23.70;;;3.17;;
70228;SDS011;57617;51.988;5.854;2023-01-10T10:43:58;29.55;;;3.85;;
70228;SDS011;57617;51.988;5.854;2023-01-10T10:46:29;17.63;;;3.47;;
70228;SDS011;57617;51.988;5.854;2023-01-10T10:48:59;20.40;;;3.65;;
70228;SDS011;57617;51.988;5.854;2023-01-10T10:54:02;20.08;;;3.28;;
70228;SDS011;57617;51.988;5.854;2023-01-10T10:56:27;19.42;;;3.40;;
70228;SDS011;57617;51.988;5.854;2023-01-10T10:58:55;18.83;;;3.40;;
70228;SDS011;57617;51.988;5.854;2023-01-10T11:01:23;22.13;;;2.97;;
70228;SDS011;57617;51.988;5.854;2023-01-10T11:03:57;17.63;;;3.42;;
70228;SDS011;57617;51.988;5.854;2023-01-10T11:06:26;24.48;;;3.40;;
70228;SDS011;57617;51.988;5.854;2023-01-10T11:08:54;23.73;;;3.42;;
70228;SDS011;57617;51.988;5.854;2023-01-10T11:11:29;24.02;;;2.90;;
70228;SDS011;57617;51.988;5.854;2023-01-10T11:13:59;16.98;;;2.97;;
70228;SDS011;57617;51.988;5.854;2023-01-10T11:16:32;25.40;;;3.00;;
70228;SDS011;57617;51.988;5.854;2023-01-10T11:21:34;27.90;;;3.58;;
70228;SDS011;57617;51.988;5.854;2023-01-10T11:24:00;19.85;;;2.97;;
70228;SDS011;57617;51.988;5.854;2023-01-10T11:26:27;25.02;;;3.08;;
70228;SDS011;57617;51.988;5.854;2023-01-10T11:29:14;24.15;;;3.13;;
70228;SDS011;57617;51.988;5.854;2023-01-10T11:31:48;15.85;;;2.90;;
70228;SDS011;57617;51.988;5.854;2023-01-10T11:34:24;16.73;;;2.50;;
70228;SDS011;57617;51.988;5.854;2023-01-10T11:37:04;18.58;;;2.38;;
70228;SDS011;57617;51.988;5.854;2023-01-10T11:39:42;27.73;;;3.13;;
70228;SDS011;57617;51.988;5.854;2023-01-10T11:42:24;26.88;;;3.28;;
70228;SDS011;57617;51.988;5.854;2023-01-10T11:45:39;17.83;;;2.55;;
70228;SDS011;57617;51.988;5.854;2023-01-10T11:47:44;25.05;;;3.13;;
70228;SDS011;57617;51.988;5.854;2023-01-10T11:50:19;23.98;;;3.25;;
70228;SDS011;57617;51.988;5.854;2023-01-10T11:52:48;21.23;;;2.92;;
70228;SDS011;57617;51.988;5.854;2023-01-10T11:55:18;17.92;;;3.10;;
70228;SDS011;57617;51.988;5.854;2023-01-10T11:57:45;17.92;;;3.05;;
70228;SDS011;57617;51.988;5.854;2023-01-10T12:00:19;21.33;;;3.13;;
70228;SDS011;57617;51.988;5.854;2023-01-10T12:02:45;21.40;;;3.00;;
70228;SDS011;57617;51.988;5.854;2023-01-10T12:05:12;22.23;;;3.05;;
70228;SDS011;57617;51.988;5.854;2023-01-10T12:07:53;22.98;;;3.15;;
70228;SDS011;57617;51.988;5.854;2023-01-10T12:10:19;26.42;;;3.05;;
70228;SDS011;57617;51.988;5.854;2023-01-10T12:12:56;18.20;;;3.30;;
70228;SDS011;57617;51.988;5.854;2023-01-10T12:15:27;22.05;;;2.97;;
70228;SDS011;57617;51.988;5.854;2023-01-10T12:17:58;24.58;;;3.00;;
70228;SDS011;57617;51.988;5.854;2023-01-10T12:20:26;24.40;;;3.00;;
70228;SDS011;57617;51.988;5.854;2023-01-10T12:22:56;21.17;;;2.83;;
70228;SDS011;57617;51.988;5.854;2023-01-10T12:25:37;22.50;;;2.83;;
70228;SDS011;57617;51.988;5.854;2023-01-10T12:28:13;19.15;;;2.80;;
70228;SDS011;57617;51.988;5.854;2023-01-10T12:30:42;19.13;;;3.08;;
70228;SDS011;57617;51.988;5.854;2023-01-10T12:33:15;22.77;;;3.20;;
70228;SDS011;57617;51.988;5.854;2023-01-10T12:41:45;28.58;;;4.00;;
70228;SDS011;57617;51.988;5.854;2023-01-10T12:44:44;26.27;;;3.10;;
70228;SDS011;57617;51.988;5.854;2023-01-10T12:52:25;21.67;;;3.60;;
70228;SDS011;57617;51.988;5.854;2023-01-10T12:54:52;22.95;;;3.47;;
70228;SDS011;57617;51.988;5.854;2023-01-10T12:57:36;26.52;;;4.88;;
70228;SDS011;57617;51.988;5.854;2023-01-10T13:00:04;21.80;;;3.88;;
70228;SDS011;57617;51.988;5.854;2023-01-10T13:02:38;27.77;;;5.07;;
70228;SDS011;57617;51.988;5.854;2023-01-10T13:05:11;25.45;;;4.40;;
70228;SDS011;57617;51.988;5.854;2023-01-10T13:07:41;25.35;;;4.03;;
70228;SDS011;57617;51.988;5.854;2023-01-10T13:10:08;22.08;;;3.95;;
70228;SDS011;57617;51.988;5.854;2023-01-10T13:12:41;26.08;;;3.92;;
70228;SDS011;57617;51.988;5.854;2023-01-10T13:15:19;26.73;;;3.55;;
70228;SDS011;57617;51.988;5.854;2023-01-10T13:17:52;24.33;;;3.83;;
70228;SDS011;57617;51.988;5.854;2023-01-10T13:22:49;23.85;;;3.20;;
70228;SDS011;57617;51.988;5.854;2023-01-10T13:27:53;20.73;;;3.25;;
70228;SDS011;57617;51.988;5.854;2023-01-10T13:30:25;18.60;;;3.20;;
70228;SDS011;57617;51.988;5.854;2023-01-10T13:32:57;21.23;;;4.10;;
70228;SDS011;57617;51.988;5.854;2023-01-10T13:35:27;19.80;;;3.42;;
70228;SDS011;57617;51.988;5.854;2023-01-10T13:38:02;16.90;;;2.70;;
70228;SDS011;57617;51.988;5.854;2023-01-10T13:40:28;20.58;;;3.08;;
70228;SDS011;57617;51.988;5.854;2023-01-10T13:43:23;23.20;;;3.35;;
70228;SDS011;57617;51.988;5.854;2023-01-10T13:48:39;22.63;;;4.10;;
70228;SDS011;57617;51.988;5.854;2023-01-10T13:51:06;20.63;;;3.67;;
70228;SDS011;57617;51.988;5.854;2023-01-10T13:53:42;23.33;;;3.90;;
70228;SDS011;57617;51.988;5.854;2023-01-10T13:56:29;17.77;;;3.80;;
70228;SDS011;57617;51.988;5.854;2023-01-10T13:58:57;19.85;;;3.25;;
70228;SDS011;57617;51.988;5.854;2023-01-10T14:01:42;19.27;;;3.88;;
70228;SDS011;57617;51.988;5.854;2023-01-10T14:04:32;22.98;;;3.45;;
70228;SDS011;57617;51.988;5.854;2023-01-10T14:07:01;19.90;;;3.25;;
70228;SDS011;57617;51.988;5.854;2023-01-10T14:09:30;21.58;;;3.60;;
70228;SDS011;57617;51.988;5.854;2023-01-10T14:12:04;22.10;;;3.30;;
70228;SDS011;57617;51.988;5.854;2023-01-10T14:14:39;28.83;;;3.58;;
70228;SDS011;57617;51.988;5.854;2023-01-10T14:17:09;14.50;;;2.85;;
70228;SDS011;57617;51.988;5.854;2023-01-10T14:19:38;17.13;;;3.03;;
70228;SDS011;57617;51.988;5.854;2023-01-10T14:22:16;23.65;;;2.65;;
70228;SDS011;57617;51.988;5.854;2023-01-10T14:24:49;21.38;;;2.58;;
70228;SDS011;57617;51.988;5.854;2023-01-10T14:27:17;20.13;;;2.63;;
70228;SDS011;57617;51.988;5.854;2023-01-10T14:29:45;18.20;;;3.10;;
70228;SDS011;57617;51.988;5.854;2023-01-10T14:32:37;19.25;;;2.67;;
70228;SDS011;57617;51.988;5.854;2023-01-10T14:35:06;23.83;;;3.30;;
70228;SDS011;57617;51.988;5.854;2023-01-10T14:37:42;20.33;;;3.40;;
70228;SDS011;57617;51.988;5.854;2023-01-10T14:42:56;19.25;;;2.60;;
70228;SDS011;57617;51.988;5.854;2023-01-10T14:47:58;19.23;;;2.90;;
70228;SDS011;57617;51.988;5.854;2023-01-10T14:50:28;20.65;;;2.95;;
70228;SDS011;57617;51.988;5.854;2023-01-10T14:52:56;22.70;;;3.00;;
70228;SDS011;57617;51.988;5.854;2023-01-10T14:55:24;20.45;;;2.90;;
70228;SDS011;57617;51.988;5.854;2023-01-10T14:57:59;26.63;;;3.65;;
70228;SDS011;57617;51.988;5.854;2023-01-10T15:00:32;23.95;;;3.55;;
70228;SDS011;57617;51.988;5.854;2023-01-10T15:03:00;25.70;;;3.47;;
70228;SDS011;57617;51.988;5.854;2023-01-10T15:05:29;22.23;;;3.42;;
70228;SDS011;57617;51.988;5.854;2023-01-10T15:08:13;19.30;;;3.25;;
70228;SDS011;57617;51.988;5.854;2023-01-10T15:10:46;28.10;;;3.40;;
70228;SDS011;57617;51.988;5.854;2023-01-10T15:13:16;22.58;;;3.47;;
70228;SDS011;57617;51.988;5.854;2023-01-10T15:15:47;16.15;;;2.97;;
70228;SDS011;57617;51.988;5.854;2023-01-10T15:20:55;20.48;;;2.97;;
70228;SDS011;57617;51.988;5.854;2023-01-10T15:23:21;25.75;;;4.50;;
70228;SDS011;57617;51.988;5.854;2023-01-10T15:25:57;22.83;;;3.92;;
70228;SDS011;57617;51.988;5.854;2023-01-10T15:28:26;17.50;;;3.13;;
70228;SDS011;57617;51.988;5.854;2023-01-10T15:30:53;22.95;;;3.50;;
70228;SDS011;57617;51.988;5.854;2023-01-10T15:33:24;22.63;;;3.63;;
70228;SDS011;57617;51.988;5.854;2023-01-10T15:35:53;23.63;;;3.85;;
70228;SDS011;57617;51.988;5.854;2023-01-10T15:38:20;22.90;;;3.38;;
70228;SDS011;57617;51.988;5.854;2023-01-10T15:40:57;16.75;;;3.58;;
70228;SDS011;57617;51.988;5.854;2023-01-10T15:43:28;16.05;;;3.08;;
70228;SDS011;57617;51.988;5.854;2023-01-10T15:45:55;16.60;;;3.65;;
70228;SDS011;57617;51.988;5.854;2023-01-10T15:48:32;20.77;;;3.75;;
70228;SDS011;57617;51.988;5.854;2023-01-10T15:51:00;19.92;;;3.60;;
70228;SDS011;57617;51.988;5.854;2023-01-10T15:56:39;14.00;;;3.40;;
70228;SDS011;57617;51.988;5.854;2023-01-10T16:02:36;17.50;;;2.95;;
70228;SDS011;57617;51.988;5.854;2023-01-10T16:04:49;13.70;;;3.10;;
70228;SDS011;57617;51.988;5.854;2023-01-10T16:07:41;18.75;;;3.33;;
70228;SDS011;57617;51.988;5.854;2023-01-10T16:12:48;16.92;;;3.42;;
70228;SDS011;57617;51.988;5.854;2023-01-10T16:15:33;15.77;;;3.40;;
70228;SDS011;57617;51.988;5.854;2023-01-10T16:17:59;20.13;;;3.53;;
70228;SDS011;57617;51.988;5.854;2023-01-10T16:20:34;9.10;;;2.70;;
70228;SDS011;57617;51.988;5.854;2023-01-10T16:23:03;14.98;;;3.55;;
70228;SDS011;57617;51.988;5.854;2023-01-10T16:25:33;14.60;;;3.00;;
70228;SDS011;57617;51.988;5.854;2023-01-10T16:28:02;11.93;;;2.97;;